Time;durP1;ratioP1;P1;durP2;ratioP2;P2;SDS_P1;SDS_P2;PMS_P1;PMS_P2;Temp;Humidity;BMP_temperature;BMP_pressure;BME280_temperature;BME280_humidity;BME280_pressure;Samples;Min_cycle;Max_cycle;Signal;HPM_P1;HPM_P2
2022/02/10 00:20:10;;;;;;;;;;;21.80;44.50;;;;;;5154573;27;19973;-49
2022/02/10 00:34:10;;;;;;;;;;;21.80;44.50;;;;;;5158926;27;19927;-46
2022/02/10 00:37:20;;;;;;;;;;;21.80;44.50;;;;;;5158700;27;19981;-47
2022/02/10 00:41:54;;;;;;;;;;;21.80;44.50;;;;;;5158880;27;19927;-45
2022/02/10 00:44:21;;;;;;;;;;;21.80;44.50;;;;;;5157299;27;19966;-46
2022/02/10 00:46:48;;;;;;;;;;;21.80;44.50;;;;;;5158447;27;19923;-48
2022/02/10 00:49:15;;;;;;;;;;;21.80;44.50;;;;;;5145982;27;19927;-42
2022/02/10 00:51:42;;;;;;;;;;;21.80;44.50;;;;;;5137478;27;19977;-45
2022/02/10 00:54:10;;;;;;;;;;;21.80;44.50;;;;;;5137891;27;20332;-45
2022/02/10 00:56:38;;;;;;;;;;;21.80;44.50;;;;;;5137553;27;19930;-44
2022/02/10 00:59:18;;;;;;;;;;;21.80;44.50;;;;;;5147468;27;19936;-44
2022/02/10 01:13:03;;;;;;;;;;;21.80;44.50;;;;;;5137572;27;19924;-49
2022/02/10 01:31:59;;;;;;;;;;;21.80;44.50;;;;;;5156791;27;20025;-49
2022/02/10 01:34:28;;;;;;;;;;;21.80;44.50;;;;;;5157082;27;20013;-43
2022/02/10 01:36:55;;;;;;;;;;;21.80;44.60;;;;;;5157470;27;19970;-45
2022/02/10 01:39:25;;;;;;;;;;;21.80;44.50;;;;;;5139453;27;20316;-47
2022/02/10 02:03:47;;;;;;;;;;;21.70;44.50;;;;;;5137355;27;19969;-43
2022/02/10 02:06:23;;;;;;;;;;;21.70;44.50;;;;;;5141926;27;19927;-51
2022/02/10 02:08:50;;;;;;;;;;;21.70;44.50;;;;;;5136408;27;19927;-51
2022/02/10 02:11:17;;;;;;;;;;;21.70;44.50;;;;;;5136074;27;19953;-49
2022/02/10 02:13:44;;;;;;;;;;;21.70;44.50;;;;;;5136028;27;20443;-49
2022/02/10 02:16:11;;;;;;;;;;;21.70;44.50;;;;;;5156680;27;19927;-47
2022/02/10 02:18:38;;;;;;;;;;;21.70;44.50;;;;;;5156514;27;19923;-47
2022/02/10 02:21:05;;;;;;;;;;;21.70;44.50;;;;;;5137229;27;19968;-46
2022/02/10 02:23:32;;;;;;;;;;;21.70;44.50;;;;;;5135698;27;19968;-43
2022/02/10 02:26:09;;;;;;;;;;;21.70;44.50;;;;;;5136121;27;19984;-46
2022/02/10 02:28:39;;;;;;;;;;;21.70;44.60;;;;;;5136038;27;19976;-44
2022/02/10 02:31:11;;;;;;;;;;;21.70;44.50;;;;;;5136036;27;19923;-48
2022/02/10 02:36:36;;;;;;;;;;;21.70;44.50;;;;;;5153365;27;19927;-47
2022/02/10 03:06:40;;;;;;;;;;;21.70;44.50;;;;;;5073059;28;19974;-44
2022/02/10 03:09:15;;;;;;;;;;;21.70;44.50;;;;;;5071945;28;19964;-46
2022/02/10 03:11:43;;;;;;;;;;;21.70;44.50;;;;;;5071782;28;19990;-43
2022/02/10 03:14:15;;;;;;;;;;;21.70;44.50;;;;;;5055042;28;19924;-44
2022/02/10 04:05:48;;;;;;;;;;;21.60;44.50;;;;;;5154299;27;19969;-47
2022/02/10 04:11:13;;;;;;;;;;;21.60;44.50;;;;;;5159738;27;19984;-44
2022/02/10 04:16:30;;;;;;;;;;;21.60;44.50;;;;;;5158390;27;19963;-44
2022/02/10 04:27:31;;;;;;;;;;;21.60;44.50;;;;;;5158916;27;20271;-43
2022/02/10 04:56:27;;;;;;;;;;;21.60;44.50;;;;;;5137626;27;20378;-48
2022/02/10 05:16:05;;;;;;;;;;;21.60;44.50;;;;;;5072291;28;19974;-49
2022/02/10 05:34:41;;;;;;;;;;;21.50;44.40;;;;;;5053606;28;20308;-47
2022/02/10 05:37:08;;;;;;;;;;;21.50;44.40;;;;;;5062316;28;19974;-43
2022/02/10 05:39:41;;;;;;;;;;;21.50;44.50;;;;;;5091388;28;20437;-48
2022/02/10 05:51:09;;;;;;;;;;;21.50;44.50;;;;;;5093519;28;19928;-45
2022/02/10 05:54:08;;;;;;;;;;;21.50;44.40;;;;;;5092191;28;19985;-43
2022/02/10 06:53:44;;;;;;;;;;;21.50;44.40;;;;;;5155095;27;20438;-50
2022/02/10 06:56:37;;;;;;;;;;;21.50;44.40;;;;;;5156338;27;19923;-49
2022/02/10 07:09:43;;;;;;;;;;;21.50;44.50;;;;;;5135012;27;19935;-47
2022/02/10 07:15:00;;;;;;;;;;;21.50;44.50;;;;;;5136079;27;19992;-47
2022/02/10 07:54:02;;;;;;;;;;;21.50;44.10;;;;;;5090703;28;19928;-48
2022/02/10 08:57:04;;;;;;;;;;;21.70;43.80;;;;;;5158279;27;19923;-45
2022/02/10 09:04:31;;;;;;;;;;;21.70;43.70;;;;;;5157298;27;19923;-45
2022/02/10 09:21:16;;;;;;;;;;;21.80;43.50;;;;;;5137206;27;19924;-43
2022/02/10 09:59:12;;;;;;;;;;;22.00;43.00;;;;;;5157821;27;19927;-44
2022/02/10 10:01:47;;;;;;;;;;;22.00;42.90;;;;;;5157108;27;19976;-46
2022/02/10 10:04:22;;;;;;;;;;;22.10;43.00;;;;;;5156240;27;19923;-46
2022/02/10 10:09:58;;;;;;;;;;;22.10;42.90;;;;;;5114253;27;20386;-45
2022/02/10 10:49:41;;;;;;;;;;;22.20;42.80;;;;;;5012074;28;19925;-48
2022/02/10 10:57:24;;;;;;;;;;;22.30;42.80;;;;;;5023550;28;20430;-46
2022/02/10 11:36:28;;;;;;;;;;;22.50;42.70;;;;;;5084023;28;19924;-47
2022/02/10 11:39:01;;;;;;;;;;;22.50;42.70;;;;;;5091655;28;19924;-51
2022/02/10 11:41:37;;;;;;;;;;;22.50;42.80;;;;;;5090858;28;19924;-48
2022/02/10 11:45:27;;;;;;;;;;;22.50;42.70;;;;;;5091475;28;19986;-49
2022/02/10 14:15:25;;;;;;;;;;;23.00;43.10;;;;;;5156884;27;19923;-46
2022/02/10 14:18:35;;;;;;;;;;;23.00;43.10;;;;;;5156897;27;19988;-45
2022/02/10 14:25:46;;;;;;;;;;;23.00;43.10;;;;;;5156936;27;19923;-49
2022/02/10 14:28:14;;;;;;;;;;;22.90;43.00;;;;;;5155833;27;20002;-46
2022/02/10 14:30:41;;;;;;;;;;;23.00;43.10;;;;;;5156545;27;19923;-45
2022/02/10 14:33:08;;;;;;;;;;;23.00;43.10;;;;;;5156319;27;20027;-48
2022/02/10 14:35:51;;;;;;;;;;;23.00;43.10;;;;;;5156717;27;19923;-47
2022/02/10 15:18:08;;;;;;;;;;;22.90;43.10;;;;;;5092153;28;20007;-43
2022/02/10 16:17:15;;;;;;;;;;;22.70;43.50;;;;;;5155284;27;19946;-44
2022/02/10 16:19:46;;;;;;;;;;;22.70;43.50;;;;;;5132890;28;19978;-47
2022/02/10 16:24:51;;;;;;;;;;;22.70;43.60;;;;;;5117055;28;19924;-47
2022/02/10 16:29:59;;;;;;;;;;;22.70;43.60;;;;;;5125447;28;19927;-46
2022/02/10 16:32:32;;;;;;;;;;;22.60;43.60;;;;;;5134371;27;20259;-46
2022/02/10 16:35:02;;;;;;;;;;;22.60;43.60;;;;;;5134394;27;19927;-46
2022/02/10 16:37:35;;;;;;;;;;;22.60;43.60;;;;;;5134075;27;19924;-46
2022/02/10 16:40:08;;;;;;;;;;;22.60;43.60;;;;;;5132973;27;20412;-45
2022/02/10 16:42:40;;;;;;;;;;;22.60;43.60;;;;;;5134277;27;20272;-48
2022/02/10 16:45:12;;;;;;;;;;;22.60;43.70;;;;;;5132104;28;20398;-46
2022/02/10 16:47:44;;;;;;;;;;;22.60;43.70;;;;;;5133184;28;19923;-46
2022/02/10 16:50:18;;;;;;;;;;;22.60;43.70;;;;;;5133981;27;19967;-48
2022/02/10 16:52:57;;;;;;;;;;;22.60;43.70;;;;;;5134061;27;19998;-46
2022/02/10 16:55:42;;;;;;;;;;;22.50;43.70;;;;;;5133375;28;19976;-46
2022/02/10 16:58:33;;;;;;;;;;;22.50;43.70;;;;;;5133953;27;19924;-46
2022/02/10 17:18:01;;;;;;;;;;;22.50;43.70;;;;;;5117073;28;19950;-52
2022/02/10 17:21:01;;;;;;;;;;;22.50;43.70;;;;;;5137534;27;19923;-48
2022/02/10 17:28:43;;;;;;;;;;;22.50;43.80;;;;;;5137395;27;19931;-50
2022/02/10 17:34:14;;;;;;;;;;;22.50;43.80;;;;;;5157925;27;20273;-48
2022/02/10 17:37:04;;;;;;;;;;;22.50;43.80;;;;;;5157613;27;19927;-48
2022/02/10 17:53:11;;;;;;;;;;;22.40;43.80;;;;;;5157005;27;19927;-46
2022/02/10 17:55:38;;;;;;;;;;;22.40;43.90;;;;;;5156271;27;20405;-45
2022/02/10 17:58:05;;;;;;;;;;;22.40;44.00;;;;;;5157454;27;19984;-46
2022/02/10 18:00:32;;;;;;;;;;;22.40;44.40;;;;;;5128984;27;19998;-44
2022/02/10 18:03:01;;;;;;;;;;;22.40;44.10;;;;;;5139740;27;20282;-44
2022/02/10 18:08:17;;;;;;;;;;;22.40;44.20;;;;;;5157283;27;19992;-45
2022/02/10 18:13:28;;;;;;;;;;;22.40;44.30;;;;;;5156975;27;19923;-45
2022/02/10 18:15:59;;;;;;;;;;;22.40;44.40;;;;;;5155731;27;19950;-44
2022/02/10 18:18:41;;;;;;;;;;;22.40;44.50;;;;;;5135966;27;19931;-47
2022/02/10 18:21:49;;;;;;;;;;;22.40;44.60;;;;;;5136083;27;19923;-47
2022/02/10 18:29:17;;;;;;;;;;;22.40;44.80;;;;;;5156538;27;19927;-43
2022/02/10 19:07:54;;;;;;;;;;;22.30;45.80;;;;;;5087176;28;19939;-44
2022/02/10 19:10:25;;;;;;;;;;;22.30;45.90;;;;;;5142156;27;20438;-44
2022/02/10 19:12:58;;;;;;;;;;;22.30;46.00;;;;;;5152745;27;19934;-45
2022/02/10 19:15:33;;;;;;;;;;;22.30;46.00;;;;;;5155034;27;19950;-45
2022/02/10 19:18:01;;;;;;;;;;;22.30;46.10;;;;;;5155433;27;19923;-46
2022/02/10 19:20:29;;;;;;;;;;;22.30;46.10;;;;;;5155713;27;20366;-46
2022/02/10 19:22:56;;;;;;;;;;;22.30;46.20;;;;;;5155373;27;19923;-49
2022/02/10 19:25:23;;;;;;;;;;;22.30;46.30;;;;;;5153727;27;19929;-44
2022/02/10 19:27:50;;;;;;;;;;;22.30;47.00;;;;;;5143296;27;19927;-46
2022/02/10 19:30:18;;;;;;;;;;;22.30;46.40;;;;;;5155437;27;19930;-45
2022/02/10 19:32:53;;;;;;;;;;;22.30;46.50;;;;;;5154396;27;19923;-45
2022/02/10 19:35:23;;;;;;;;;;;22.30;46.60;;;;;;5155760;27;19923;-46
2022/02/10 19:37:56;;;;;;;;;;;22.30;46.60;;;;;;5143982;27;20294;-47
2022/02/10 19:40:30;;;;;;;;;;;22.30;46.60;;;;;;5139584;27;20009;-46
2022/02/10 19:42:57;;;;;;;;;;;22.30;46.80;;;;;;5155245;27;19930;-45
2022/02/10 19:45:25;;;;;;;;;;;22.30;46.80;;;;;;5155290;27;19958;-45
2022/02/10 19:47:52;;;;;;;;;;;22.30;46.80;;;;;;5154843;27;19927;-47
2022/02/10 19:50:27;;;;;;;;;;;22.30;46.90;;;;;;5155182;27;19934;-45
2022/02/10 19:52:58;;;;;;;;;;;22.30;46.90;;;;;;5138481;27;19924;-46
2022/02/10 19:55:27;;;;;;;;;;;22.30;47.20;;;;;;5137376;27;19923;-47
2022/02/10 19:57:58;;;;;;;;;;;22.30;47.00;;;;;;5155107;27;19923;-45
2022/02/10 20:00:31;;;;;;;;;;;22.30;47.10;;;;;;5136808;27;20378;-44
2022/02/10 20:03:00;;;;;;;;;;;22.30;47.10;;;;;;5154037;27;20289;-47
2022/02/10 20:05:27;;;;;;;;;;;22.30;47.20;;;;;;5146449;27;19927;-48
2022/02/10 20:07:55;;;;;;;;;;;22.30;47.20;;;;;;5134321;28;19924;-45
2022/02/10 20:10:22;;;;;;;;;;;22.30;47.20;;;;;;5135829;27;19932;-45
2022/02/10 20:12:49;;;;;;;;;;;22.30;47.20;;;;;;5155128;27;19927;-46
2022/02/10 20:15:17;;;;;;;;;;;22.30;47.20;;;;;;5154971;27;19927;-46
2022/02/10 20:17:44;;;;;;;;;;;22.30;47.20;;;;;;5154384;27;19976;-44
2022/02/10 20:20:11;;;;;;;;;;;22.30;47.30;;;;;;5155265;27;19930;-43
2022/02/10 20:22:42;;;;;;;;;;;22.30;47.30;;;;;;5150115;27;20382;-45
2022/02/10 20:25:31;;;;;;;;;;;22.30;47.30;;;;;;5152452;27;19982;-47
2022/02/10 20:27:58;;;;;;;;;;;22.30;47.40;;;;;;5154852;27;19923;-44
2022/02/10 20:30:25;;;;;;;;;;;22.30;47.40;;;;;;5155142;27;19931;-46
2022/02/10 20:32:52;;;;;;;;;;;22.30;47.50;;;;;;5154000;27;19923;-44
2022/02/10 20:35:20;;;;;;;;;;;22.30;47.40;;;;;;5155115;27;20293;-49
2022/02/10 20:37:47;;;;;;;;;;;22.30;47.40;;;;;;5146754;27;19976;-45
2022/02/10 20:40:14;;;;;;;;;;;22.20;47.30;;;;;;5139662;27;19924;-43
2022/02/10 20:42:42;;;;;;;;;;;22.30;47.40;;;;;;5136744;27;19962;-49
2022/02/10 20:45:09;;;;;;;;;;;22.30;47.40;;;;;;5138238;27;19923;-45
2022/02/10 20:47:36;;;;;;;;;;;22.20;47.30;;;;;;5148271;27;19927;-45
2022/02/10 20:50:07;;;;;;;;;;;22.20;47.30;;;;;;5152809;27;19923;-46
2022/02/10 20:52:35;;;;;;;;;;;22.20;47.30;;;;;;5158624;27;20271;-47
2022/02/10 20:55:02;;;;;;;;;;;22.20;47.30;;;;;;5158725;27;19967;-43
2022/02/10 20:57:29;;;;;;;;;;;22.20;47.30;;;;;;5140740;27;20409;-44
2022/02/10 20:59:57;;;;;;;;;;;22.20;47.30;;;;;;5137638;27;19923;-43
2022/02/10 21:02:38;;;;;;;;;;;22.20;47.30;;;;;;5144742;27;19968;-46
2022/02/10 21:05:20;;;;;;;;;;;22.20;47.30;;;;;;5153414;27;19924;-46
2022/02/10 21:07:59;;;;;;;;;;;22.20;47.30;;;;;;5137866;27;19924;-46
2022/02/10 21:10:28;;;;;;;;;;;22.20;47.30;;;;;;5137727;27;19932;-50
2022/02/10 21:12:55;;;;;;;;;;;22.20;47.30;;;;;;5145145;27;19923;-46
2022/02/10 21:15:30;;;;;;;;;;;22.20;47.30;;;;;;5157972;27;20442;-45
2022/02/10 21:18:02;;;;;;;;;;;22.20;47.30;;;;;;5146471;27;20307;-49
2022/02/10 21:20:32;;;;;;;;;;;22.20;47.30;;;;;;5137620;27;19924;-48
2022/02/10 21:25:42;;;;;;;;;;;22.20;47.40;;;;;;5155954;27;19963;-47
2022/02/10 21:28:22;;;;;;;;;;;22.20;47.40;;;;;;5156792;27;19923;-45
2022/02/10 21:30:53;;;;;;;;;;;22.20;47.40;;;;;;5156894;27;19968;-48
2022/02/10 21:33:47;;;;;;;;;;;22.10;47.30;;;;;;5142148;27;20019;-49
2022/02/10 22:09:16;;;;;;;;;;;22.10;47.50;;;;;;5136920;27;19931;-46
2022/02/10 22:17:27;;;;;;;;;;;22.10;47.60;;;;;;5091419;28;20022;-48
2022/02/10 22:19:41;;;;;;;;;;;22.10;47.60;;;;;;5089293;28;19932;-47
2022/02/10 22:22:15;;;;;;;;;;;22.10;47.60;;;;;;5075506;28;20334;-51
2022/02/10 22:24:42;;;;;;;;;;;22.10;47.60;;;;;;5086837;28;19924;-45
2022/02/10 22:27:11;;;;;;;;;;;22.10;47.60;;;;;;5079751;28;20039;-48
2022/02/10 22:29:50;;;;;;;;;;;22.10;47.60;;;;;;5092825;28;19924;-53
2022/02/10 22:32:29;;;;;;;;;;;22.10;47.60;;;;;;5092959;28;19928;-50
2022/02/10 22:34:56;;;;;;;;;;;22.10;47.60;;;;;;5092504;28;19924;-53
2022/02/10 22:37:23;;;;;;;;;;;22.10;47.60;;;;;;5092558;28;19924;-47
2022/02/10 22:39:52;;;;;;;;;;;22.10;47.60;;;;;;5092872;28;19987;-48
2022/02/10 22:42:39;;;;;;;;;;;22.10;47.60;;;;;;5091888;28;19931;-46
2022/02/10 22:45:06;;;;;;;;;;;22.10;47.60;;;;;;5092624;28;20430;-47
2022/02/10 22:47:33;;;;;;;;;;;22.10;47.60;;;;;;5092608;28;19931;-52
2022/02/10 22:50:01;;;;;;;;;;;22.10;47.60;;;;;;5091782;28;19931;-49
2022/02/10 22:52:28;;;;;;;;;;;22.10;47.60;;;;;;5115114;27;19931;-48
2022/02/10 22:54:55;;;;;;;;;;;22.10;47.50;;;;;;5135653;27;19927;-51
2022/02/10 22:57:22;;;;;;;;;;;22.10;47.50;;;;;;5139445;27;19931;-49
2022/02/10 22:59:48;;;;;;;;;;;22.10;47.50;;;;;;5156048;27;19935;-48
2022/02/10 23:02:16;;;;;;;;;;;22.10;47.40;;;;;;5156160;27;19927;-49
2022/02/10 23:04:43;;;;;;;;;;;22.10;47.40;;;;;;5141528;27;19924;-45
2022/02/10 23:07:10;;;;;;;;;;;22.10;47.30;;;;;;5156209;27;20335;-44
2022/02/10 23:12:11;;;;;;;;;;;22.10;47.30;;;;;;5154963;27;19923;-45
2022/02/10 23:14:38;;;;;;;;;;;22.10;47.30;;;;;;5156030;27;19981;-42
2022/02/10 23:17:05;;;;;;;;;;;22.10;47.20;;;;;;5156039;27;19976;-46
2022/02/10 23:19:34;;;;;;;;;;;22.10;47.20;;;;;;5154793;27;19983;-47
2022/02/10 23:22:01;;;;;;;;;;;22.10;47.20;;;;;;5155430;27;19927;-45
2022/02/10 23:24:28;;;;;;;;;;;22.10;47.10;;;;;;5155571;27;19968;-44
2022/02/10 23:26:55;;;;;;;;;;;22.10;47.10;;;;;;5155547;27;19923;-45
2022/02/10 23:29:22;;;;;;;;;;;22.00;47.00;;;;;;5154780;27;20366;-46
2022/02/10 23:31:49;;;;;;;;;;;22.10;47.10;;;;;;5155801;27;19923;-44
2022/02/10 23:34:16;;;;;;;;;;;22.00;47.00;;;;;;5154629;27;20364;-46
2022/02/10 23:36:49;;;;;;;;;;;22.00;46.90;;;;;;5155417;27;20369;-44
2022/02/10 23:39:35;;;;;;;;;;;22.00;46.90;;;;;;5155771;27;19927;-44
2022/02/10 23:42:18;;;;;;;;;;;22.00;46.90;;;;;;5155265;27;19974;-45
2022/02/10 23:44:48;;;;;;;;;;;22.00;46.80;;;;;;5134498;27;19976;-46
2022/02/10 23:47:22;;;;;;;;;;;22.00;46.80;;;;;;5135767;27;19976;-45
2022/02/10 23:49:51;;;;;;;;;;;22.00;46.80;;;;;;5146569;27;19976;-44
2022/02/10 23:52:20;;;;;;;;;;;22.00;46.80;;;;;;5155058;27;19975;-43
2022/02/10 23:54:51;;;;;;;;;;;22.00;46.70;;;;;;5155463;27;19981;-45
